CheckWX is a tool to help pilots better visualize weather data.  It is not intended as a substitute for an official pre-flight weather briefing.

15:44:12 UTC

KONP METAR
Newport Municipal Airport
Newport, Oregon, USA
Current

9 mins ago

KONP 261535Z AUTO 05004KT 10/09 A2988 RMK AO2 PWINO
Observed
May-26 @ 15:35 UTC
Wind
  • 050° at 4 KTS
Visibility
Temperature
10°C / 50°F
Dewpoint
C / 48°F
Humidity
94%
Altimeter
29.88" Hg
Pressure
1011.82 hPa
Previous

29 mins ago

KONP 261515Z AUTO 08003KT 10/09 A2987 RMK AO2 PWINO
Observed
May-26 @ 15:15 UTC
Wind
  • 080° at 3 KTS
Visibility
Temperature
10°C / 50°F
Dewpoint
C / 48°F
Humidity
94%
Altimeter
29.87" Hg
Pressure
1011.52 hPa
Previous

49 mins ago

KONP 261455Z AUTO 00000KT 09/08 A2987 RMK AO2 PWINO
Observed
May-26 @ 14:55 UTC
Visibility
Temperature
C / 48°F
Dewpoint
C / 46°F
Humidity
94%
Altimeter
29.87" Hg
Pressure
1011.52 hPa